Weather History for Chippewa, MI

Change the Weather History Date:

Sunday, September 29, 2013

  Actual Average Record
Temperature  
Mean Temperature 58 °F -  
Max Temperature 64 °F 60 °F 73 °F (1982)
Min Temperature 51 °F 39 °F 25 °F (1984)
Degree Days  
Heating Degree Days 8    
Growing Degree Days 8 (Base 50)    
Moisture  
Dew Point 51 °F    
Average Humidity 80    
Maximum Humidity 100    
Minimum Humidity 52    
Precipitation  
Precipitation 0.25 in - - ()
Sea Level Pressure  
Sea Level Pressure 29.94 in    
Wind  
Wind Speed 9 mph (West)    
Max Wind Speed 17 mph    
Max Gust Speed 28 mph    
Visibility 10 miles    
Events      
Averages and records for this station are not official NWS values.
T = Trace of Precipitation, MM = Missing Value Source: NWS Daily Summary

Daily Weather History Graph

Daily Weather History Graph

Search for Another Location

Airport:

Trip Planner

Search our weather history database for the weather conditions in past years. The results will help you decide how hot, cold, wet, or windy it might be!

Date:

Astronomy

Sep. 29, 2013 Rise Set
Actual Time 7:34 AM EDT 7:21 PM EDT
Civil Twilight 7:04 AM EDT 7:51 PM EDT
Nautical Twilight 6:29 AM EDT 8:25 PM EDT
Astronomical Twilight 5:53 AM EDT 9:01 PM EDT
Moon 1:59 AM EDT 4:30 PM EDT
Length of Visible Light 12h 46m
Length of Day
11h 47m
Waning Crescent, 27% of the Moon is Illuminated
Sep 29
Waning Crescent
Oct 4
New
Oct 11
First Quarter
Oct 18
Full
Oct 26
Last Quarter

Hourly Weather History & Observations

Time (EDT) Temp. Dew Point Humidity Pressure Visibility Wind Dir Wind Speed Gust Speed Precip Events Conditions
12:15 AM 64.4 °F 55.4 °F 73% 29.84 in 10.0 mi SE 17.3 mph 23.0 mph N/A   Overcast
12:35 AM 64.4 °F 55.4 °F 73% 29.83 in 10.0 mi SSE 17.3 mph 27.6 mph N/A   Overcast
12:55 AM 64.4 °F 55.4 °F 73% 29.82 in 10.0 mi SSE 16.1 mph 23.0 mph N/A   Overcast
1:15 AM 62.6 °F 55.4 °F 77% 29.82 in 10.0 mi SSE 15.0 mph 20.7 mph N/A   Overcast
1:35 AM 62.6 °F 55.4 °F 77% 29.82 in 10.0 mi SSE 11.5 mph 16.1 mph N/A   Overcast
1:55 AM 64.4 °F 55.4 °F 73% 29.83 in 10.0 mi South 9.2 mph - N/A   Overcast
2:15 AM 62.6 °F 55.4 °F 77% 29.84 in 10.0 mi South 8.1 mph 16.1 mph N/A   Overcast
2:35 AM 62.6 °F 57.2 °F 82% 29.84 in 10.0 mi SSW 3.5 mph - 0.01 in   Overcast
2:55 AM 60.8 °F 57.2 °F 88% 29.83 in 10.0 mi South 4.6 mph - 0.02 in   Overcast
3:15 AM 59.0 °F 59.0 °F 100% 29.83 in 4.0 mi SSE 5.8 mph - N/A   Overcast
3:35 AM 59.0 °F 59.0 °F 100% 29.82 in 3.0 mi South 4.6 mph - 0.04 in   Overcast
3:55 AM 59.0 °F 57.2 °F 94% 29.83 in 5.0 mi WNW 16.1 mph 19.6 mph 0.11 in   Overcast
4:15 AM 55.4 °F 53.6 °F 94% 29.85 in 9.0 mi WNW 12.7 mph 21.9 mph 0.06 in   Overcast
4:35 AM 55.4 °F 55.4 °F 100% 29.86 in 10.0 mi WNW 10.4 mph - 0.11 in   Overcast
4:55 AM 55.4 °F 53.6 °F 94% 29.85 in 10.0 mi WNW 8.1 mph - 0.12 in   Overcast
5:15 AM 55.4 °F 53.6 °F 94% 29.85 in 10.0 mi NW 6.9 mph - N/A   Overcast
5:35 AM 53.6 °F 53.6 °F 100% 29.86 in 10.0 mi West 5.8 mph - N/A   Overcast
5:55 AM 53.6 °F 53.6 °F 100% 29.88 in 10.0 mi WSW 4.6 mph - N/A   Overcast
6:15 AM 53.6 °F 53.6 °F 100% 29.89 in 10.0 mi West 4.6 mph - N/A   Overcast
6:35 AM 53.6 °F 51.8 °F 94% 29.90 in 10.0 mi WSW 4.6 mph - N/A   Mostly Cloudy
6:55 AM 53.6 °F 53.6 °F 100% 29.90 in 10.0 mi WSW 4.6 mph - N/A   Partly Cloudy
7:15 AM 53.6 °F 53.6 °F 100% 29.91 in 10.0 mi WSW 3.5 mph - N/A   Clear
7:35 AM 51.8 °F 51.8 °F 100% 29.91 in 10.0 mi West 4.6 mph - N/A   Clear
7:55 AM 51.8 °F 51.8 °F 100% 29.92 in 10.0 mi WSW 5.8 mph - N/A   Clear
8:15 AM 51.8 °F 51.8 °F 100% 29.92 in 10.0 mi West 6.9 mph - N/A   Clear
8:35 AM 51.8 °F 51.8 °F 100% 29.93 in 10.0 mi West 6.9 mph - N/A   Clear
8:55 AM 51.8 °F 51.8 °F 100% 29.93 in 10.0 mi West 8.1 mph - N/A   Clear
9:15 AM 51.8 °F 50.0 °F 94% 29.94 in 10.0 mi West 6.9 mph - N/A   Clear
9:35 AM 53.6 °F 51.8 °F 94% 29.95 in 10.0 mi West 9.2 mph - N/A   Clear
9:55 AM 53.6 °F 51.8 °F 94% 29.96 in 10.0 mi West 8.1 mph - N/A   Partly Cloudy
10:15 AM 55.4 °F 51.8 °F 88% 29.96 in 10.0 mi West 10.4 mph - N/A   Clear
10:35 AM 55.4 °F 51.8 °F 88% 29.96 in 10.0 mi West 10.4 mph - N/A   Partly Cloudy
10:55 AM 55.4 °F 51.8 °F 88% 29.97 in 10.0 mi West 11.5 mph - N/A   Mostly Cloudy
11:15 AM 57.2 °F 51.8 °F 82% 29.98 in 10.0 mi WNW 11.5 mph - N/A   Overcast
11:35 AM 55.4 °F 50.0 °F 82% 29.98 in 10.0 mi WNW 9.2 mph - N/A   Overcast
11:55 AM 57.2 °F 50.0 °F 77% 29.99 in 10.0 mi West 11.5 mph 16.1 mph N/A   Mostly Cloudy
12:15 PM 57.2 °F 50.0 °F 77% 29.99 in 10.0 mi WNW 11.5 mph - N/A   Mostly Cloudy
12:35 PM 59.0 °F 48.2 °F 67% 29.99 in 10.0 mi WNW 13.8 mph 18.4 mph N/A   Mostly Cloudy
12:55 PM 59.0 °F 48.2 °F 67% 29.99 in 10.0 mi WNW 8.1 mph - N/A   Scattered Clouds
1:15 PM 59.0 °F 48.2 °F 67% 29.99 in 10.0 mi NW 12.7 mph - N/A   Scattered Clouds
1:35 PM 60.8 °F 48.2 °F 63% 29.99 in 10.0 mi WNW 9.2 mph 17.3 mph N/A   Partly Cloudy
1:55 PM 60.8 °F 46.4 °F 59% 29.99 in 10.0 mi WNW 10.4 mph 17.3 mph N/A   Partly Cloudy
2:15 PM 60.8 °F 46.4 °F 59% 29.99 in 10.0 mi WNW 11.5 mph 18.4 mph N/A   Partly Cloudy
2:35 PM 60.8 °F 46.4 °F 59% 29.99 in 10.0 mi NNW 9.2 mph - N/A   Clear
2:55 PM 62.6 °F 46.4 °F 55% 29.99 in 10.0 mi West 8.1 mph - N/A   Clear
3:15 PM 62.6 °F 46.4 °F 55% 29.98 in 10.0 mi North 11.5 mph - N/A   Clear
3:35 PM 62.6 °F 44.6 °F 52% 29.98 in 10.0 mi NW 9.2 mph 17.3 mph N/A   Clear
3:55 PM 62.6 °F 44.6 °F 52% 29.97 in 10.0 mi North 5.8 mph - N/A   Clear
4:15 PM 62.6 °F 44.6 °F 52% 29.97 in 10.0 mi Calm Calm - N/A   Clear
4:35 PM 62.6 °F 46.4 °F 55% 29.97 in 10.0 mi North 4.6 mph - N/A   Clear
4:55 PM 62.6 °F 46.4 °F 55% 29.98 in 10.0 mi NW 5.8 mph - N/A   Clear
5:15 PM 62.6 °F 44.6 °F 52% 29.98 in 10.0 mi NNW 4.6 mph - N/A   Clear
5:35 PM 62.6 °F 44.6 °F 52% 29.98 in 10.0 mi NW 5.8 mph - N/A   Clear
5:55 PM 62.6 °F 44.6 °F 52% 29.98 in 10.0 mi NNE 3.5 mph - N/A   Clear
6:15 PM 62.6 °F 44.6 °F 52% 29.98 in 10.0 mi NE 4.6 mph - N/A   Clear
6:35 PM 60.8 °F 44.6 °F 55% 29.99 in 10.0 mi Calm Calm - N/A   Clear
6:55 PM 60.8 °F 44.6 °F 55% 29.99 in 10.0 mi Calm Calm - N/A   Clear
7:15 PM 57.2 °F 50.0 °F 77% 30.00 in 10.0 mi Calm Calm - N/A   Clear
7:35 PM 57.2 °F 51.8 °F 82% 29.99 in 10.0 mi Calm Calm - N/A   Clear
7:55 PM 55.4 °F 51.8 °F 88% 29.99 in 10.0 mi Calm Calm - N/A   Clear
8:15 PM 53.6 °F 51.8 °F 94% 30.00 in 10.0 mi Calm Calm - N/A   Clear
8:35 PM 55.4 °F 50.0 °F 82% 30.00 in 10.0 mi SSW 3.5 mph - N/A   Clear
8:55 PM 53.6 °F 50.0 °F 88% 30.00 in 10.0 mi SSW 4.6 mph - N/A   Clear
9:15 PM 53.6 °F 48.2 °F 82% 30.00 in 10.0 mi SSW 3.5 mph - N/A   Clear
9:35 PM 53.6 °F 48.2 °F 82% 30.00 in 10.0 mi SSW 3.5 mph - N/A   Clear
9:55 PM 53.6 °F 50.0 °F 88% 30.00 in 10.0 mi SSW 3.5 mph - N/A   Clear
10:15 PM 53.6 °F 50.0 °F 88% 30.01 in 10.0 mi SW 3.5 mph - N/A   Clear
10:35 PM 51.8 °F 50.0 °F 94% 30.01 in 10.0 mi SSW 4.6 mph - N/A   Clear
10:55 PM 53.6 °F 51.8 °F 94% 30.01 in 10.0 mi SSW 4.6 mph - N/A   Clear
11:15 PM 51.8 °F 50.0 °F 94% 30.01 in 10.0 mi SSW 3.5 mph - N/A   Clear
11:35 PM 51.8 °F 51.8 °F 100% 30.00 in 10.0 mi Calm Calm - N/A   Clear
11:55 PM 51.8 °F 50.0 °F 94% 30.00 in 10.0 mi Calm Calm - N/A   Clear